Time;durP1;ratioP1;P1;durP2;ratioP2;P2;SDS_P1;SDS_P2;PMS_P1;PMS_P2;Temp;Humidity;BMP_temperature;BMP_pressure;BME280_temperature;BME280_humidity;BME280_pressure;Samples;Min_cycle;Max_cycle;Signal;HPM_P1;HPM_P2
2023/05/13 00:00:56;;;;;;;0.00;0.00;;;;;;;12.20;76.44;101322.50;6146446;23;20130;-77
2023/05/13 00:03:24;;;;;;;0.00;0.00;;;;;;;12.10;76.48;101290.31;6269940;22;20017;-76
2023/05/13 00:05:55;;;;;;;0.00;0.00;;;;;;;12.09;76.57;101298.78;6143726;23;20459;-75
2023/05/13 00:08:20;;;;;;;0.00;0.00;;;;;;;12.25;76.66;101310.78;6122122;23;20041;-74
2023/05/13 00:10:45;;;;;;;0.00;0.00;;;;;;;12.12;76.25;101290.03;6145648;23;20017;-76
2023/05/13 00:13:11;;;;;;;0.00;0.00;;;;;;;12.08;76.21;101297.97;6250864;22;20031;-74
2023/05/13 00:15:39;;;;;;;0.00;0.00;;;;;;;11.89;76.10;101275.50;6119907;23;20016;-75
2023/05/13 00:18:05;;;;;;;0.00;0.00;;;;;;;11.96;77.07;101306.31;6145769;23;20016;-75
2023/05/13 00:20:30;;;;;;;0.00;0.00;;;;;;;11.95;77.21;101318.34;6144099;23;20491;-74
2023/05/13 00:22:58;;;;;;;0.10;0.10;;;;;;;11.95;77.10;101318.34;6146804;22;20013;-76
2023/05/13 00:25:26;;;;;;;0.00;0.00;;;;;;;11.85;76.98;101309.97;6145632;23;20012;-76
2023/05/13 00:27:52;;;;;;;0.00;0.00;;;;;;;11.85;77.00;101320.91;6248055;22;20013;-76
2023/05/13 00:30:17;;;;;;;0.05;0.05;;;;;;;11.87;76.54;101316.00;6226311;23;20483;-76
2023/05/13 00:32:43;;;;;;;0.00;0.00;;;;;;;11.84;76.20;101305.56;6274772;22;20435;-76
2023/05/13 00:35:09;;;;;;;0.00;0.00;;;;;;;11.94;76.75;101341.34;6250194;22;20010;-76
2023/05/13 00:37:34;;;;;;;0.00;0.00;;;;;;;11.93;76.87;101336.97;6142510;23;20819;-75
2023/05/13 00:40:00;;;;;;;0.00;0.00;;;;;;;11.88;75.95;101342.34;6145976;23;20445;-75
2023/05/13 00:42:25;;;;;;;0.00;0.00;;;;;;;11.83;76.27;101337.63;6143443;23;20037;-74
2023/05/13 00:44:51;;;;;;;0.00;0.00;;;;;;;11.97;76.42;101335.41;6224569;23;20014;-75
2023/05/13 00:47:20;;;;;;;0.00;0.00;;;;;;;11.88;76.18;101325.91;6120478;23;20530;-75
2023/05/13 00:49:46;;;;;;;0.00;0.00;;;;;;;11.67;75.76;101295.47;6142641;23;20055;-74
2023/05/13 00:52:11;;;;;;;0.00;0.00;;;;;;;11.83;75.83;101317.63;6250095;22;20009;-74
2023/05/13 00:54:37;;;;;;;0.00;0.00;;;;;;;11.86;75.73;101325.34;6272159;22;20182;-75
2023/05/13 00:57:04;;;;;;;0.00;0.00;;;;;;;11.82;76.30;101333.22;6120435;23;20092;-75
2023/05/13 00:59:30;;;;;;;0.00;0.00;;;;;;;11.82;76.69;101322.25;6270515;22;20021;-74
2023/05/13 01:02:25;;;;;;;0.00;0.00;;;;;;;11.78;75.92;101321.09;6145657;23;20037;-75
2023/05/13 01:04:56;;;;;;;;;;;;;;;11.73;76.49;101314.72;6154807;23;20013;-73
2023/05/13 01:07:41;;;;;;;0.00;0.00;;;;;;;11.66;76.90;101302.03;6143536;23;19914;-74
2023/05/13 01:10:10;;;;;;;;;;;;;;;11.64;77.06;101309.69;6140587;23;20017;-75
2023/05/13 01:12:39;;;;;;;0.00;0.00;;;;;;;11.53;77.18;101285.94;6140236;23;19954;-75
2023/05/13 01:15:10;;;;;;;0.00;0.00;;;;;;;11.52;77.37;101295.22;6144433;23;20343;-74
2023/05/13 01:17:49;;;;;;;0.00;0.00;;;;;;;11.51;77.54;101288.13;6143471;23;20013;-76
2023/05/13 01:20:19;;;;;;;0.00;0.00;;;;;;;11.48;77.24;101283.16;6142677;23;20001;-74
2023/05/13 01:22:47;;;;;;;0.00;0.00;;;;;;;11.44;78.02;101292.94;6143499;23;20002;-73
2023/05/13 01:25:13;;;;;;;0.00;0.00;;;;;;;11.42;78.09;101278.66;6144967;23;20012;-75
2023/05/13 01:27:39;;;;;;;0.00;0.00;;;;;;;11.38;78.25;101291.22;6244595;22;20017;-75
2023/05/13 01:30:05;;;;;;;0.00;0.00;;;;;;;11.37;78.85;101281.31;6142457;23;20032;-74
2023/05/13 01:32:32;;;;;;;0.00;0.00;;;;;;;11.49;78.82;101296.59;6115112;23;20514;-75
2023/05/13 01:34:58;;;;;;;0.10;0.10;;;;;;;11.44;77.90;101293.75;6146015;23;20370;-74
2023/05/13 01:37:24;;;;;;;0.00;0.00;;;;;;;11.35;78.24;101274.19;6142290;23;20010;-74
2023/05/13 01:39:50;;;;;;;0.00;0.00;;;;;;;11.44;78.47;101290.19;6144746;23;20006;-74
2023/05/13 01:42:16;;;;;;;0.00;0.00;;;;;;;11.31;78.60;101283.16;6145283;23;20088;-73
2023/05/13 01:44:41;;;;;;;0.00;0.00;;;;;;;11.33;78.15;101292.78;6141249;23;20092;-75
2023/05/13 01:47:07;;;;;;;0.00;0.00;;;;;;;11.24;78.78;101283.31;6145945;23;20041;-75
2023/05/13 01:49:32;;;;;;;0.00;0.00;;;;;;;11.38;79.02;101288.47;6269607;22;20055;-74
2023/05/13 01:52:03;;;;;;;0.00;0.00;;;;;;;11.26;78.65;101285.81;6147862;23;20010;-74
2023/05/13 01:54:29;;;;;;;0.00;0.00;;;;;;;11.29;78.67;101291.63;6145066;23;20086;-74
2023/05/13 01:56:57;;;;;;;0.00;0.00;;;;;;;11.15;78.48;101260.19;6131992;22;20018;-76
2023/05/13 01:59:25;;;;;;;0.00;0.00;;;;;;;11.32;79.04;101296.59;6112795;23;20041;-75
2023/05/13 02:01:50;;;;;;;0.00;0.00;;;;;;;11.20;78.47;101286.78;6090654;23;20380;-75
2023/05/13 02:04:18;;;;;;;0.00;0.00;;;;;;;11.18;79.01;101306.22;6088181;23;20006;-75
2023/05/13 02:06:44;;;;;;;0.00;0.00;;;;;;;11.16;79.12;101302.91;6112529;23;20006;-76
2023/05/13 02:09:12;;;;;;;0.00;0.00;;;;;;;11.11;79.11;101305.53;6092186;23;20096;-76
2023/05/13 02:11:37;;;;;;;0.00;0.00;;;;;;;10.97;79.44;101285.91;6111136;23;20025;-76
2023/05/13 02:14:03;;;;;;;0.00;0.00;;;;;;;11.08;79.79;101314.25;6093975;23;20013;-76
2023/05/13 02:16:29;;;;;;;0.00;0.00;;;;;;;11.05;79.90;101306.53;6064644;23;20006;-76
2023/05/13 02:18:54;;;;;;;0.00;0.00;;;;;;;11.11;80.05;101308.28;6091035;23;20040;-75
2023/05/13 02:21:20;;;;;;;0.00;0.00;;;;;;;11.10;80.30;101290.22;6067699;23;20014;-76
2023/05/13 02:23:45;;;;;;;0.00;0.00;;;;;;;11.16;80.03;101302.91;6086978;23;20495;-76
2023/05/13 02:26:11;;;;;;;0.00;0.00;;;;;;;11.08;79.74;101293.22;6068714;23;20014;-76
2023/05/13 02:28:36;;;;;;;0.00;0.00;;;;;;;11.14;79.14;101305.91;6062998;23;20063;-75
2023/05/13 02:31:01;;;;;;;0.00;0.00;;;;;;;11.14;79.35;101302.31;6066199;23;20060;-75
2023/05/13 02:33:27;;;;;;;0.00;0.00;;;;;;;11.17;79.22;101305.41;6091072;23;20014;-76
2023/05/13 02:35:54;;;;;;;0.00;0.00;;;;;;;11.14;79.59;101305.03;6087633;23;20343;-75
2023/05/13 02:38:20;;;;;;;0.00;0.00;;;;;;;11.15;79.50;101303.97;6088366;23;20017;-75
2023/05/13 02:40:45;;;;;;;0.00;0.00;;;;;;;11.10;79.45;101320.34;6063630;23;20092;-75
2023/05/13 02:43:11;;;;;;;0.00;0.00;;;;;;;11.06;79.95;101330.09;6116033;23;20096;-75
2023/05/13 02:45:38;;;;;;;0.00;0.00;;;;;;;11.05;79.47;101317.50;6062706;23;20010;-75
2023/05/13 02:48:04;;;;;;;0.00;0.00;;;;;;;11.00;79.97;101326.44;6088465;23;20006;-75
2023/05/13 02:50:29;;;;;;;0.00;0.00;;;;;;;10.88;79.69;101328.41;6111128;23;20372;-75
2023/05/13 02:52:55;;;;;;;0.00;0.00;;;;;;;10.86;80.39;101328.66;6118731;23;20416;-75
2023/05/13 02:55:20;;;;;;;0.00;0.00;;;;;;;10.86;80.62;101320.44;6090490;23;20009;-75
2023/05/13 02:57:46;;;;;;;0.00;0.00;;;;;;;10.86;79.98;101319.63;6064467;23;20003;-75
2023/05/13 03:00:12;;;;;;;0.00;0.00;;;;;;;10.87;79.98;101316.63;6065999;23;20302;-74
2023/05/13 03:02:37;;;;;;;0.00;0.00;;;;;;;10.89;79.85;101314.47;6041789;23;20014;-74
2023/05/13 03:05:03;;;;;;;0.00;0.00;;;;;;;10.90;80.49;101309.84;6066228;23;20423;-74
2023/05/13 03:07:28;;;;;;;0.00;0.00;;;;;;;11.03;80.49;101319.66;6041877;23;20006;-76
2023/05/13 03:09:54;;;;;;;0.00;0.00;;;;;;;11.00;80.21;101320.97;6038354;23;20034;-74
2023/05/13 03:12:20;;;;;;;0.00;0.00;;;;;;;10.97;80.70;101305.88;6041559;23;20310;-75
2023/05/13 03:14:45;;;;;;;0.00;0.00;;;;;;;10.85;80.76;101294.19;6037803;23;20020;-75
2023/05/13 03:17:11;;;;;;;0.00;0.00;;;;;;;10.93;80.37;101309.34;6017834;23;20038;-75
2023/05/13 03:19:37;;;;;;;0.00;0.00;;;;;;;10.94;80.53;101317.31;6087235;23;20013;-75
2023/05/13 03:22:04;;;;;;;0.00;0.00;;;;;;;10.87;80.70;101313.91;6040287;23;20025;-75
2023/05/13 03:24:29;;;;;;;0.00;0.00;;;;;;;10.65;81.24;101289.97;6063317;23;20009;-75
2023/05/13 03:26:56;;;;;;;0.00;0.00;;;;;;;10.75;81.00;101307.66;6064749;23;20015;-78
2023/05/13 03:29:21;;;;;;;0.00;0.00;;;;;;;10.79;81.71;101314.28;6064307;23;20024;-78
2023/05/13 03:31:48;;;;;;;0.00;0.00;;;;;;;10.73;81.76;101304.34;6033599;23;20481;-78
2023/05/13 03:34:13;;;;;;;0.00;0.00;;;;;;;10.73;82.22;101304.34;6060606;23;20007;-78
2023/05/13 03:36:39;;;;;;;0.00;0.00;;;;;;;10.75;82.37;101302.19;6012452;23;20041;-78
2023/05/13 03:39:04;;;;;;;0.00;0.00;;;;;;;10.82;81.51;101298.22;6040348;23;20037;-77
2023/05/13 03:41:32;;;;;;;0.00;0.00;;;;;;;10.87;81.22;101304.88;6062755;23;20064;-79
2023/05/13 03:43:58;;;;;;;0.00;0.00;;;;;;;10.82;81.23;101302.88;6057015;23;20010;-78
2023/05/13 03:46:26;;;;;;;0.00;0.00;;;;;;;10.87;81.23;101311.16;6039574;23;20073;-79
2023/05/13 03:48:51;;;;;;;0.00;0.00;;;;;;;10.97;81.15;101327.75;6058776;23;20029;-79
2023/05/13 03:51:17;;;;;;;0.00;0.00;;;;;;;10.88;80.28;101315.56;6063844;23;20349;-79
2023/05/13 03:53:42;;;;;;;0.00;0.00;;;;;;;10.83;80.77;101316.31;6011487;23;20448;-80
2023/05/13 03:56:08;;;;;;;0.00;0.00;;;;;;;10.78;80.68;101320.84;6060327;23;20025;-77
2023/05/13 03:58:33;;;;;;;0.00;0.00;;;;;;;10.77;80.45;101321.91;6067387;23;20014;-78
2023/05/13 04:00:59;;;;;;;0.00;0.00;;;;;;;10.76;80.23;101323.84;6063838;23;20018;-74
2023/05/13 04:03:24;;;;;;;0.00;0.00;;;;;;;10.68;80.59;101318.75;6088548;23;20029;-75
2023/05/13 04:05:50;;;;;;;0.00;0.00;;;;;;;10.70;80.79;101315.78;6067818;23;20006;-73
2023/05/13 04:08:16;;;;;;;0.00;0.00;;;;;;;10.77;80.50;101321.91;6086991;23;20075;-74
2023/05/13 04:10:41;;;;;;;0.00;0.00;;;;;;;10.67;80.97;101313.53;6090756;23;20369;-74
2023/05/13 04:13:07;;;;;;;0.00;0.00;;;;;;;10.62;80.71;101317.81;6087195;23;20021;-74
2023/05/13 04:15:32;;;;;;;0.00;0.00;;;;;;;10.53;80.94;101316.56;6091050;23;20005;-75
2023/05/13 04:17:58;;;;;;;0.00;0.00;;;;;;;10.58;81.14;101327.59;6087864;23;20119;-74
2023/05/13 04:20:24;;;;;;;0.00;0.00;;;;;;;10.54;81.89;101318.22;6115134;23;20332;-75
2023/05/13 04:22:49;;;;;;;0.00;0.00;;;;;;;10.62;81.37;101322.47;6116935;23;20033;-74
2023/05/13 04:25:15;;;;;;;0.00;0.00;;;;;;;10.60;81.80;101322.72;6086476;23;20092;-75
2023/05/13 04:27:41;;;;;;;0.00;0.00;;;;;;;10.55;81.30;101325.34;6116857;23;20002;-75
2023/05/13 04:30:07;;;;;;;0.00;0.00;;;;;;;10.57;81.58;101328.69;6113500;23;20010;-74
2023/05/13 04:32:32;;;;;;;0.00;0.00;;;;;;;10.55;82.00;101314.41;6089726;23;20010;-75
2023/05/13 04:34:58;;;;;;;0.00;0.00;;;;;;;10.51;82.41;101313.22;6087971;23;20443;-74
2023/05/13 04:37:25;;;;;;;0.00;0.00;;;;;;;10.56;82.32;101321.53;6065400;23;20013;-73
2023/05/13 04:39:51;;;;;;;0.00;0.00;;;;;;;10.54;82.75;101312.75;6092979;23;20010;-75
2023/05/13 04:42:16;;;;;;;0.00;0.00;;;;;;;10.62;82.51;101331.50;6087730;23;20314;-74
2023/05/13 04:44:42;;;;;;;0.00;0.00;;;;;;;10.67;82.73;101338.16;6117451;23;20013;-75
2023/05/13 04:47:08;;;;;;;0.00;0.00;;;;;;;10.62;82.56;101331.50;6113461;23;20010;-75
2023/05/13 04:49:34;;;;;;;0.00;0.00;;;;;;;10.61;82.95;101338.03;6113594;23;20012;-75
2023/05/13 04:52:03;;;;;;;0.00;0.00;;;;;;;10.62;82.66;101336.16;6113401;23;20068;-75
2023/05/13 04:54:30;;;;;;;0.00;0.00;;;;;;;10.61;82.75;101338.03;6065389;23;20026;-75
2023/05/13 04:56:56;;;;;;;0.00;0.00;;;;;;;10.63;83.00;101335.91;6112885;23;20025;-74
2023/05/13 04:59:21;;;;;;;0.10;0.10;;;;;;;10.59;83.09;101339.38;6113780;23;20086;-74
2023/05/13 05:01:47;;;;;;;0.00;0.00;;;;;;;10.64;83.21;101337.56;6111939;22;20014;-74
2023/05/13 05:04:15;;;;;;;0.00;0.00;;;;;;;10.62;82.67;101331.50;6112626;23;20013;-74
2023/05/13 05:06:40;;;;;;;0.00;0.00;;;;;;;10.62;82.66;101328.75;6111918;23;20527;-74
2023/05/13 05:09:08;;;;;;;0.00;0.00;;;;;;;10.67;82.70;101332.69;6115696;23;20012;-75
2023/05/13 05:11:33;;;;;;;0.00;0.00;;;;;;;10.68;82.71;101339.81;6110394;22;20013;-73
2023/05/13 05:13:59;;;;;;;0.00;0.00;;;;;;;10.65;82.55;101331.00;6117035;23;20439;-75
2023/05/13 05:16:24;;;;;;;0.00;0.00;;;;;;;10.65;82.50;101331.00;6110210;23;20521;-75
2023/05/13 05:18:50;;;;;;;0.00;0.00;;;;;;;10.69;82.46;101339.56;6089578;23;20093;-75
2023/05/13 05:21:17;;;;;;;0.00;0.00;;;;;;;10.67;82.55;101340.88;6088382;23;20021;-75
2023/05/13 05:24:05;;;;;;;0.00;0.00;;;;;;;10.75;82.75;101349.53;6068105;23;20034;-75
2023/05/13 05:26:30;;;;;;;0.00;0.00;;;;;;;10.64;82.53;101337.56;6111228;23;20475;-74
2023/05/13 05:28:56;;;;;;;0.00;0.00;;;;;;;10.68;82.87;101357.06;6114919;23;20002;-75
2023/05/13 05:31:21;;;;;;;0.00;0.00;;;;;;;10.55;82.66;101349.97;6090601;23;20018;-76
2023/05/13 05:33:47;;;;;;;0.00;0.00;;;;;;;10.57;82.83;101356.03;6111386;23;20010;-75
2023/05/13 05:36:12;;;;;;;0.00;0.00;;;;;;;10.43;82.89;101341.78;6089691;23;20010;-74
2023/05/13 05:38:38;;;;;;;0.00;0.00;;;;;;;10.55;83.09;101358.16;6137642;23;20064;-75
2023/05/13 05:41:03;;;;;;;0.00;0.00;;;;;;;10.57;83.42;101369.72;6067178;23;20092;-74
2023/05/13 05:43:29;;;;;;;0.00;0.00;;;;;;;10.50;83.19;101338.94;6111641;23;20413;-75
2023/05/13 05:45:55;;;;;;;0.00;0.00;;;;;;;10.68;82.81;101372.66;6115852;23;20427;-75
2023/05/13 05:48:20;;;;;;;0.00;0.00;;;;;;;10.77;82.38;101371.16;6068429;23;20481;-74
2023/05/13 05:50:46;;;;;;;0.00;0.00;;;;;;;10.80;82.18;101365.19;6087209;23;20324;-76
2023/05/13 05:53:12;;;;;;;0.00;0.00;;;;;;;10.83;81.64;101357.34;6117590;23;20014;-74
2023/05/13 05:55:38;;;;;;;0.00;0.00;;;;;;;10.97;82.08;101371.56;6086082;23;20033;-76
2023/05/13 05:58:05;;;;;;;0.00;0.00;;;;;;;10.93;81.83;101370.38;6091000;23;20006;-75
2023/05/13 06:00:31;;;;;;;0.00;0.00;;;;;;;10.92;81.88;101368.75;6063296;23;20436;-75
2023/05/13 06:02:57;;;;;;;0.00;0.00;;;;;;;10.98;81.42;101375.09;6089754;23;20105;-75
2023/05/13 06:05:24;;;;;;;0.00;0.00;;;;;;;11.03;81.42;101352.50;6091535;23;20085;-73
2023/05/13 06:07:50;;;;;;;0.00;0.00;;;;;;;11.29;80.65;101368.28;6112088;23;20424;-74
2023/05/13 06:10:18;;;;;;;0.00;0.00;;;;;;;11.49;80.31;101377.91;6115713;23;20010;-74
2023/05/13 06:12:43;;;;;;;0.00;0.00;;;;;;;11.59;79.67;101375.34;6065113;23;20067;-75
2023/05/13 06:15:09;;;;;;;0.00;0.00;;;;;;;11.54;78.88;101358.84;6113379;23;20006;-75
2023/05/13 06:17:39;;;;;;;0.00;0.00;;;;;;;11.62;78.18;101377.59;6115322;23;20010;-77
2023/05/13 06:20:08;;;;;;;0.00;0.00;;;;;;;11.52;77.63;101377.41;6109718;23;20006;-75
2023/05/13 06:22:33;;;;;;;0.00;0.00;;;;;;;11.37;78.30;101347.03;6141284;23;20017;-80
2023/05/13 06:25:01;;;;;;;0.00;0.00;;;;;;;11.56;78.22;101381.31;6061305;23;20013;-78
2023/05/13 06:27:27;;;;;;;0.00;0.00;;;;;;;11.57;77.92;101380.25;6115332;23;20012;-77
2023/05/13 06:29:52;;;;;;;0.00;0.00;;;;;;;11.61;77.52;101375.94;6109790;23;20025;-77
2023/05/13 06:32:17;;;;;;;0.00;0.00;;;;;;;11.72;77.08;101378.81;6065826;23;20006;-77
2023/05/13 06:34:46;;;;;;;0.00;0.00;;;;;;;11.73;77.04;101385.97;6089363;23;20014;-76
2023/05/13 06:37:12;;;;;;;0.00;0.00;;;;;;;11.67;77.15;101385.06;6083908;23;20333;-76
2023/05/13 06:39:41;;;;;;;0.00;0.00;;;;;;;11.57;77.14;101382.97;6115423;23;20017;-80
2023/05/13 06:42:07;;;;;;;0.00;0.00;;;;;;;11.30;76.86;101375.44;6108847;23;20037;-76
2023/05/13 06:44:34;;;;;;;0.00;0.00;;;;;;;11.14;77.83;101398.13;6115778;23;20006;-75
2023/05/13 06:47:03;;;;;;;0.00;0.00;;;;;;;11.00;78.60;101382.00;6062152;23;20742;-76
2023/05/13 06:49:29;;;;;;;0.00;0.00;;;;;;;11.06;79.08;101390.31;6088898;23;20382;-75
2023/05/13 06:51:54;;;;;;;0.00;0.00;;;;;;;11.11;78.97;101388.50;6084908;23;20010;-74
2023/05/13 06:54:20;;;;;;;0.00;0.00;;;;;;;11.25;78.96;101389.00;6066876;23;20428;-75
2023/05/13 06:56:45;;;;;;;0.00;0.00;;;;;;;11.34;78.90;101381.22;6064810;23;20136;-75
2023/05/13 06:59:11;;;;;;;0.00;0.00;;;;;;;11.42;77.88;101394.53;6084630;23;20556;-76
2023/05/13 07:01:50;;;;;;;0.00;0.00;;;;;;;11.34;78.19;101387.53;6114542;23;20016;-75
2023/05/13 07:04:19;;;;;;;0.00;0.00;;;;;;;11.32;77.73;101376.00;6132200;23;20424;-76
2023/05/13 07:06:44;;;;;;;0.00;0.00;;;;;;;11.45;77.50;101382.25;6089779;23;20010;-78
2023/05/13 07:09:10;;;;;;;0.10;0.10;;;;;;;11.57;77.57;101385.72;6091996;23;20016;-78
2023/05/13 07:11:36;;;;;;;0.00;0.00;;;;;;;11.60;76.93;101379.75;6059857;23;20439;-78
2023/05/13 07:14:01;;;;;;;0.00;0.00;;;;;;;11.66;76.76;101389.69;6110200;23;20010;-76
2023/05/13 07:16:27;;;;;;;0.00;0.00;;;;;;;11.83;76.75;101403.41;6080915;23;21004;-78
2023/05/13 07:18:53;;;;;;;0.00;0.00;;;;;;;11.96;77.10;101398.66;6089848;23;20040;-78
2023/05/13 07:21:18;;;;;;;0.00;0.00;;;;;;;12.02;76.65;101390.28;6105794;23;20017;-79
2023/05/13 07:23:44;;;;;;;0.00;0.00;;;;;;;12.12;75.54;101399.72;6113018;23;20029;-79
2023/05/13 07:26:09;;;;;;;0.00;0.00;;;;;;;12.03;75.43;101383.72;6089337;23;20013;-80
2023/05/13 07:28:35;;;;;;;0.00;0.00;;;;;;;12.01;74.97;101377.63;6108138;23;20058;-79
2023/05/13 07:31:13;;;;;;;0.00;0.00;;;;;;;12.03;75.31;101400.16;6064304;23;20074;-85
2023/05/13 07:33:41;;;;;;;0.00;0.00;;;;;;;11.90;75.46;101384.03;6116709;23;20006;-80
2023/05/13 07:36:12;;;;;;;0.00;0.00;;;;;;;11.94;75.21;101374.25;6091522;23;20025;-80
2023/05/13 07:38:50;;;;;;;;;;;;;;;;;;;;;
2023/05/13 07:41:16;;;;;;;0.00;0.00;;;;;;;12.36;74.02;101403.88;6115265;23;20093;-81
2023/05/13 07:43:43;;;;;;;0.00;0.00;;;;;;;12.20;74.30;101382.84;6112772;23;20037;-80
2023/05/13 07:46:09;;;;;;;0.00;0.00;;;;;;;12.35;73.79;101402.25;6142201;23;20498;-80
2023/05/13 07:48:47;;;;;;;0.00;0.00;;;;;;;12.25;73.90;101418.56;6115843;23;20005;-80
2023/05/13 07:51:15;;;;;;;0.00;0.00;;;;;;;12.03;74.48;101418.50;6094686;23;20020;-78
2023/05/13 07:53:43;;;;;;;0.00;0.00;;;;;;;12.08;74.68;101420.50;6090187;23;20098;-80
2023/05/13 07:56:09;;;;;;;0.00;0.00;;;;;;;12.10;74.84;101426.56;6114185;23;20018;-79
2023/05/13 07:58:41;;;;;;;0.00;0.00;;;;;;;12.17;74.93;101421.75;6091298;23;20018;-78
2023/05/13 08:01:07;;;;;;;0.00;0.00;;;;;;;12.38;74.33;101423.69;6070020;23;20097;-79
2023/05/13 08:03:32;;;;;;;0.00;0.00;;;;;;;12.33;73.61;101420.03;6065985;23;20006;-80
2023/05/13 08:05:58;;;;;;;0.00;0.00;;;;;;;12.33;73.67;101415.38;6088365;23;20065;-78
2023/05/13 08:08:23;;;;;;;0.00;0.00;;;;;;;12.42;73.59;101439.63;6113402;23;20485;-79
2023/05/13 08:10:49;;;;;;;0.00;0.00;;;;;;;12.34;73.61;101417.03;6090405;23;20060;-79
2023/05/13 08:13:20;;;;;;;0.00;0.00;;;;;;;12.40;73.24;101418.75;6112048;23;20010;-79
2023/05/13 08:15:50;;;;;;;0.00;0.00;;;;;;;12.54;73.33;101426.63;6089976;23;20013;-81
2023/05/13 08:22:05;;;;;;;0.00;0.00;;;;;;;12.92;72.15;101444.09;6084304;23;20014;-80
2023/05/13 08:28:12;;;;;;;0.00;0.00;;;;;;;12.79;71.99;101406.91;6123108;23;20029;-81
2023/05/13 08:30:40;;;;;;;0.00;0.00;;;;;;;13.14;71.38;101424.00;6115774;22;20001;-78
2023/05/13 08:33:07;;;;;;;0.00;0.00;;;;;;;13.42;70.71;101432.03;6070313;23;20271;-78
2023/05/13 08:35:32;;;;;;;0.00;0.00;;;;;;;13.79;69.84;101453.22;6116746;23;20313;-79
2023/05/13 08:38:02;;;;;;;0.00;0.00;;;;;;;13.88;68.90;101439.81;6094528;23;20017;-78
2023/05/13 08:40:28;;;;;;;0.00;0.00;;;;;;;14.16;67.95;101428.72;6113133;23;20143;-79
2023/05/13 08:42:56;;;;;;;0.00;0.00;;;;;;;14.44;66.58;101442.09;6067863;23;20060;-79
2023/05/13 08:45:34;;;;;;;0.00;0.00;;;;;;;14.51;65.62;101424.50;6118103;23;20005;-79
2023/05/13 08:48:01;;;;;;;0.00;0.00;;;;;;;14.77;65.96;101440.06;6117870;23;20006;-78
2023/05/13 08:50:29;;;;;;;0.00;0.00;;;;;;;14.82;65.42;101419.97;6112410;23;20079;-80
2023/05/13 08:52:57;;;;;;;0.00;0.00;;;;;;;14.86;64.97;101423.84;6094184;23;20063;-79
2023/05/13 08:55:23;;;;;;;0.00;0.00;;;;;;;14.88;64.41;101412.56;6084967;23;20093;-76
2023/05/13 08:57:49;;;;;;;0.00;0.00;;;;;;;15.08;64.18;101426.38;6088404;23;20388;-78
2023/05/13 09:00:18;;;;;;;0.00;0.00;;;;;;;15.17;63.15;101419.25;6062556;23;20424;-79
2023/05/13 09:02:43;;;;;;;0.00;0.00;;;;;;;15.27;62.81;101420.38;6056664;23;20090;-79
2023/05/13 09:05:09;;;;;;;0.00;0.00;;;;;;;15.46;62.42;101429.78;6063915;23;20033;-77
2023/05/13 09:07:37;;;;;;;0.00;0.00;;;;;;;15.53;61.65;101426.72;6061859;23;20242;-80
2023/05/13 09:10:06;;;;;;;0.00;0.00;;;;;;;15.66;61.78;101408.81;6062531;23;20006;-79
2023/05/13 09:12:47;;;;;;;0.00;0.00;;;;;;;16.23;61.27;101432.47;6062639;23;20010;-79
2023/05/13 09:15:25;;;;;;;0.00;0.00;;;;;;;16.95;58.46;101422.28;6063379;23;20042;-78
2023/05/13 09:18:13;;;;;;;0.00;0.00;;;;;;;17.56;56.71;101419.09;6084601;23;20018;-77
2023/05/13 09:20:41;;;;;;;0.00;0.00;;;;;;;18.03;54.00;101418.72;6061958;23;20620;-79
2023/05/13 09:23:11;;;;;;;0.00;0.00;;;;;;;18.05;53.66;101413.75;6036350;23;20014;-77
2023/05/13 09:25:37;;;;;;;0.00;0.00;;;;;;;18.60;52.90;101425.28;6085998;23;20483;-79
2023/05/13 09:28:05;;;;;;;0.00;0.00;;;;;;;19.34;51.75;101422.06;6038076;23;20018;-78
2023/05/13 09:30:41;;;;;;;0.00;0.00;;;;;;;20.23;50.41;101438.88;6062576;23;20039;-80
2023/05/13 09:33:07;;;;;;;0.00;0.00;;;;;;;20.54;49.18;101446.59;6061765;23;20010;-79
2023/05/13 09:35:34;;;;;;;0.00;0.00;;;;;;;21.33;48.05;101447.44;6060636;23;20037;-80
2023/05/13 09:38:00;;;;;;;0.00;0.00;;;;;;;22.63;45.02;101457.75;6064352;23;20089;-80
2023/05/13 09:40:25;;;;;;;0.00;0.00;;;;;;;24.06;41.65;101446.00;6058945;23;20079;-78
2023/05/13 09:43:01;;;;;;;0.00;0.00;;;;;;;24.88;39.69;101458.94;6061644;23;20002;-79
2023/05/13 09:45:27;;;;;;;0.00;0.00;;;;;;;25.14;38.27;101438.38;6058738;23;20089;-80
2023/05/13 09:47:53;;;;;;;0.00;0.00;;;;;;;24.89;37.66;101452.22;6038691;23;20034;-80
2023/05/13 09:50:20;;;;;;;0.00;0.00;;;;;;;23.97;39.49;101459.97;6033968;23;20052;-80
2023/05/13 09:52:48;;;;;;;0.00;0.00;;;;;;;22.97;40.55;101462.59;6013168;23;20095;-81
2023/05/13 09:55:17;;;;;;;0.00;0.00;;;;;;;22.64;41.99;101465.78;6037043;23;20064;-79
2023/05/13 09:57:44;;;;;;;0.00;0.00;;;;;;;22.55;41.36;101464.13;6090448;23;20025;-81
2023/05/13 10:00:10;;;;;;;0.00;0.00;;;;;;;22.30;41.68;101461.69;6114956;23;20044;-78
2023/05/13 10:02:38;;;;;;;0.00;0.00;;;;;;;21.76;42.57;101461.72;6086292;23;20006;-79
2023/05/13 10:05:11;;;;;;;0.00;0.00;;;;;;;21.52;43.55;101464.78;6115496;23;19998;-80
2023/05/13 10:07:38;;;;;;;0.00;0.00;;;;;;;21.20;43.69;101432.44;6091038;23;20025;-79
2023/05/13 10:10:07;;;;;;;0.00;0.00;;;;;;;21.05;43.77;101453.88;6114437;23;20002;-80
2023/05/13 10:12:35;;;;;;;0.00;0.00;;;;;;;20.96;44.35;101466.06;6116272;23;20088;-81
2023/05/13 10:15:01;;;;;;;0.00;0.00;;;;;;;20.96;44.38;101458.53;6113543;23;20127;-81
2023/05/13 10:17:28;;;;;;;0.00;0.00;;;;;;;21.05;44.43;101467.78;6116391;23;20059;-79
2023/05/13 10:19:53;;;;;;;0.00;0.00;;;;;;;21.08;44.72;101461.63;6110519;23;20370;-80
2023/05/13 10:22:33;;;;;;;0.00;0.00;;;;;;;21.16;44.74;101456.44;6114879;23;20010;-82
2023/05/13 10:25:08;;;;;;;0.00;0.00;;;;;;;21.38;44.48;101456.47;6112752;23;20012;-79
2023/05/13 10:27:36;;;;;;;0.00;0.00;;;;;;;21.58;43.95;101454.38;6118718;23;20012;-78
2023/05/13 10:30:08;;;;;;;0.00;0.00;;;;;;;21.74;43.33;101443.69;6086675;23;21144;-80
2023/05/13 10:32:37;;;;;;;0.00;0.00;;;;;;;22.10;43.23;101446.34;6093877;23;20017;-80
2023/05/13 10:35:13;;;;;;;0.00;0.00;;;;;;;21.90;42.65;101444.09;6114017;23;20017;-81
2023/05/13 10:38:27;;;;;;;0.00;0.00;;;;;;;22.17;41.87;101453.44;6114358;23;20551;-80
2023/05/13 10:41:10;;;;;;;0.00;0.00;;;;;;;23.36;41.15;101440.47;6130043;23;20022;-82
2023/05/13 10:43:40;;;;;;;0.00;0.00;;;;;;;24.47;38.70;101433.31;6113780;23;20556;-79
2023/05/13 10:46:07;;;;;;;0.00;0.00;;;;;;;26.23;35.80;101439.16;6090125;23;20021;-81
2023/05/13 10:48:42;;;;;;;0.00;0.00;;;;;;;26.59;34.25;101433.91;6114581;23;20009;-81
2023/05/13 10:51:08;;;;;;;0.00;0.00;;;;;;;26.34;34.61;101461.13;6116017;22;20010;-79
2023/05/13 10:53:49;;;;;;;0.00;0.00;;;;;;;25.55;36.04;101426.38;6111799;23;20006;-79
2023/05/13 10:56:28;;;;;;;0.00;0.00;;;;;;;25.75;35.82;101437.84;6116337;22;20033;-80
2023/05/13 10:59:03;;;;;;;0.00;0.00;;;;;;;26.29;35.47;101454.56;6089707;23;20009;-82
2023/05/13 11:01:41;;;;;;;0.00;0.00;;;;;;;25.93;35.14;101433.72;6116422;23;20013;-80
2023/05/13 11:04:12;;;;;;;0.00;0.00;;;;;;;25.72;35.26;101447.75;6114280;23;20009;-79
2023/05/13 11:06:43;;;;;;;0.00;0.00;;;;;;;25.33;35.99;101447.13;6112324;23;20067;-81
2023/05/13 11:09:21;;;;;;;0.00;0.00;;;;;;;26.00;35.33;101435.16;6114449;23;20401;-79
2023/05/13 11:11:51;;;;;;;0.00;0.00;;;;;;;26.54;34.77;101454.59;6111815;23;20358;-79
2023/05/13 11:14:19;;;;;;;0.00;0.00;;;;;;;27.09;33.58;101429.88;6107764;23;20002;-80
2023/05/13 11:17:03;;;;;;;0.00;0.00;;;;;;;27.26;32.72;101456.88;6110862;23;20006;-79
2023/05/13 11:19:37;;;;;;;0.00;0.00;;;;;;;27.27;33.00;101441.63;6111340;22;20009;-80
2023/05/13 11:22:12;;;;;;;;;;;;;;;27.11;32.19;101454.78;6115267;23;20002;-81
2023/05/13 11:24:38;;;;;;;0.00;0.00;;;;;;;26.55;33.67;101456.22;6110627;23;19913;-81
2023/05/13 11:27:18;;;;;;;0.00;0.00;;;;;;;27.81;33.34;101443.19;6111668;23;20055;-80
2023/05/13 11:29:54;;;;;;;0.00;0.00;;;;;;;28.60;32.40;101435.97;6110119;23;20002;-79
2023/05/13 11:32:57;;;;;;;0.00;0.00;;;;;;;28.72;32.04;101452.78;6089808;23;20017;-79
2023/05/13 11:35:24;;;;;;;0.00;0.00;;;;;;;28.68;31.26;101451.03;6108653;23;20382;-78
2023/05/13 11:37:50;;;;;;;0.00;0.00;;;;;;;27.89;31.42;101435.78;6114005;23;20071;-79